createdAt,value
2019-02-08T00:00:41.757Z,17.03
2019-02-08T00:03:14.233Z,16.20
2019-02-08T00:05:46.794Z,16.87
2019-02-08T00:08:19.208Z,17.07
2019-02-08T00:10:51.498Z,15.77
2019-02-08T00:13:24.192Z,16.50
2019-02-08T00:15:56.989Z,17.03
2019-02-08T00:18:32.292Z,15.87
2019-02-08T00:21:05.374Z,17.00
2019-02-08T00:23:37.677Z,15.60
2019-02-08T00:26:10.425Z,16.63
2019-02-08T00:28:42.832Z,16.07
2019-02-08T00:31:15.167Z,14.83
2019-02-08T00:33:48.019Z,16.20
2019-02-08T00:36:20.354Z,17.30
2019-02-08T00:38:52.874Z,15.60
2019-02-08T00:41:25.271Z,16.50
2019-02-08T00:43:57.521Z,15.73
2019-02-08T00:46:30.059Z,15.47
2019-02-08T00:49:02.415Z,16.17
2019-02-08T00:51:34.680Z,14.93
2019-02-08T00:54:07.265Z,16.97
2019-02-08T00:56:39.533Z,15.60
2019-02-08T00:59:12.213Z,16.07
2019-02-08T01:01:44.491Z,15.87
2019-02-08T01:04:17.879Z,16.43
2019-02-08T01:06:50.122Z,15.67
2019-02-08T01:09:22.414Z,14.67
2019-02-08T01:11:54.934Z,16.23
2019-02-08T01:14:27.387Z,15.97
2019-02-08T01:16:59.753Z,16.17
2019-02-08T01:19:32.083Z,15.20
2019-02-08T01:22:05.589Z,15.83
2019-02-08T01:24:42.520Z,16.00
2019-02-08T01:27:14.792Z,14.57
2019-02-08T01:29:48.175Z,15.57
2019-02-08T01:32:20.609Z,16.30
2019-02-08T01:34:52.933Z,16.27
2019-02-08T01:37:25.172Z,15.30
2019-02-08T01:39:57.411Z,15.13
2019-02-08T01:42:29.796Z,14.43
2019-02-08T01:45:02.818Z,15.50
2019-02-08T01:47:36.651Z,17.10
2019-02-08T01:50:12.890Z,15.57
2019-02-08T01:52:45.234Z,14.80
2019-02-08T01:55:18.098Z,14.47
2019-02-08T01:57:52.059Z,15.53
2019-02-08T02:00:26.817Z,14.13
2019-02-08T02:02:59.269Z,15.93
2019-02-08T02:05:31.903Z,18.20
2019-02-08T02:08:04.787Z,16.73
2019-02-08T02:10:40.587Z,15.13
2019-02-08T02:13:13.947Z,15.20
2019-02-08T02:15:47.198Z,14.97
2019-02-08T02:18:19.519Z,14.03
2019-02-08T02:20:53.360Z,14.73
2019-02-08T02:23:25.745Z,13.63
2019-02-08T02:25:58.172Z,15.23
2019-02-08T02:28:30.616Z,14.43
2019-02-08T02:31:02.962Z,14.87
2019-02-08T02:33:35.449Z,14.63
2019-02-08T02:36:07.861Z,14.63
2019-02-08T02:38:40.162Z,14.37
2019-02-08T02:41:12.529Z,13.77
2019-02-08T02:43:44.785Z,15.50
2019-02-08T02:46:17.089Z,14.57
2019-02-08T02:48:49.433Z,14.70
2019-02-08T02:51:21.695Z,14.70
2019-02-08T02:53:53.979Z,14.40
2019-02-08T02:56:27.335Z,14.90
2019-02-08T02:58:59.659Z,15.73
2019-02-08T03:01:31.903Z,14.37
2019-02-08T03:04:04.717Z,14.13
2019-02-08T03:06:37.746Z,14.20
2019-02-08T03:09:10.602Z,13.10
2019-02-08T03:11:42.953Z,14.67
2019-02-08T03:14:15.320Z,14.20
2019-02-08T03:16:47.582Z,14.60
2019-02-08T03:19:19.840Z,14.40
2019-02-08T03:21:52.193Z,13.70
2019-02-08T03:24:24.453Z,14.33
2019-02-08T03:26:56.837Z,14.60
2019-02-08T03:29:29.177Z,13.77
2019-02-08T03:32:01.416Z,14.50
2019-02-08T03:34:33.715Z,13.90
2019-02-08T03:37:05.987Z,13.60
2019-02-08T03:39:39.392Z,13.67
2019-02-08T03:42:11.624Z,13.43
2019-02-08T03:44:43.963Z,13.23
2019-02-08T03:47:16.223Z,13.77
2019-02-08T03:49:48.544Z,14.27
2019-02-08T03:52:20.894Z,13.10
2019-02-08T03:54:53.150Z,13.50
2019-02-08T03:57:25.379Z,15.10
2019-02-08T03:59:57.726Z,13.27
2019-02-08T04:02:30.100Z,13.50
2019-02-08T04:05:02.544Z,14.03
2019-02-08T04:07:34.864Z,13.47
2019-02-08T04:10:08.845Z,14.07
2019-02-08T04:12:41.236Z,13.63
2019-02-08T04:15:16.685Z,13.63
2019-02-08T04:17:49.250Z,13.07
2019-02-08T04:20:25.207Z,13.70
2019-02-08T04:22:58.537Z,11.83
2019-02-08T04:25:30.897Z,12.67
2019-02-08T04:28:03.158Z,13.83
2019-02-08T04:30:35.785Z,13.47
2019-02-08T04:33:08.138Z,13.43
2019-02-08T04:35:40.413Z,13.50
2019-02-08T04:38:12.688Z,12.47
2019-02-08T04:40:44.984Z,12.53
2019-02-08T04:43:17.330Z,13.27
2019-02-08T04:45:49.595Z,12.73
2019-02-08T04:48:21.942Z,13.27
2019-02-08T04:50:54.376Z,12.73
2019-02-08T04:53:26.655Z,12.50
2019-02-08T04:55:59.095Z,13.07
2019-02-08T04:58:35.584Z,12.53
2019-02-08T05:01:05.967Z,13.23
2019-02-08T05:03:38.349Z,12.27
2019-02-08T05:06:10.665Z,12.00
2019-02-08T05:08:43.082Z,13.23
2019-02-08T05:11:15.475Z,12.03
2019-02-08T05:13:47.852Z,13.53
2019-02-08T05:16:20.314Z,12.93
2019-02-08T05:18:52.630Z,12.83
2019-02-08T05:21:24.979Z,11.47
2019-02-08T05:23:58.409Z,13.30
2019-02-08T05:26:30.765Z,11.93
2019-02-08T05:29:03.011Z,12.63
2019-02-08T05:31:35.336Z,12.57
2019-02-08T05:34:07.749Z,12.27
2019-02-08T05:36:40.070Z,12.27
2019-02-08T05:39:12.401Z,12.87
2019-02-08T05:41:44.702Z,13.40
2019-02-08T05:44:17.091Z,12.67
2019-02-08T05:46:49.412Z,13.67
2019-02-08T05:49:21.696Z,14.37
2019-02-08T05:51:54.346Z,13.70
2019-02-08T05:54:26.747Z,12.57
2019-02-08T05:56:59.040Z,13.10
2019-02-08T05:59:31.330Z,13.93
2019-02-08T06:02:03.668Z,13.63
2019-02-08T06:04:36.074Z,13.77
2019-02-08T06:07:08.387Z,15.07
2019-02-08T06:09:40.719Z,15.47
2019-02-08T06:12:13.001Z,15.30
2019-02-08T06:14:45.394Z,17.60
2019-02-08T06:17:17.818Z,17.00
2019-02-08T06:19:50.102Z,16.90
2019-02-08T06:22:22.472Z,16.60
2019-02-08T06:25:03.301Z,15.67
2019-02-08T06:27:37.642Z,15.20
2019-02-08T06:30:14.940Z,15.97
2019-02-08T06:32:48.794Z,15.57
2019-02-08T06:35:23.376Z,17.17
2019-02-08T06:37:56.518Z,16.37
2019-02-08T06:40:30.833Z,16.30
2019-02-08T06:43:04.940Z,17.13
2019-02-08T06:45:37.534Z,16.87
2019-02-08T06:48:10.918Z,18.10
2019-02-08T06:50:43.286Z,16.73
2019-02-08T06:53:15.617Z,17.50
2019-02-08T06:55:53.848Z,19.37
2019-02-08T06:58:45.946Z,18.47
2019-02-08T07:01:35.820Z,18.77
2019-02-08T07:04:21.928Z,18.53
2019-02-08T07:07:05.736Z,18.50
2019-02-08T07:09:57.324Z,17.07
2019-02-08T07:12:51.698Z,16.23
2019-02-08T07:15:41.590Z,15.00
2019-02-08T07:18:19.658Z,15.47
2019-02-08T07:21:06.192Z,16.27
2019-02-08T07:23:53.687Z,16.40
2019-02-08T07:26:54.237Z,17.00
2019-02-08T07:29:35.798Z,15.80
2019-02-08T07:32:33.915Z,16.30
2019-02-08T07:35:16.184Z,17.70
2019-02-08T07:38:13.835Z,17.50
2019-02-08T07:41:05.554Z,19.23
2019-02-08T07:43:56.927Z,19.10
2019-02-08T07:47:06.725Z,17.50
2019-02-08T07:50:05.981Z,19.47
2019-02-08T07:52:52.021Z,17.93
2019-02-08T07:55:40.261Z,16.70
2019-02-08T07:58:32.188Z,17.10
2019-02-08T08:01:33.460Z,14.33
2019-02-08T08:04:26.921Z,14.53
2019-02-08T08:07:17.182Z,13.27
2019-02-08T08:10:08.941Z,13.77
2019-02-08T08:13:14.453Z,14.10
2019-02-08T08:16:05.080Z,14.00
2019-02-08T08:18:56.758Z,14.13
2019-02-08T08:21:47.108Z,14.33
2019-02-08T08:24:35.184Z,12.93
2019-02-08T08:27:16.403Z,14.05
2019-02-08T08:30:15.879Z,14.20
2019-02-08T08:33:17.473Z,13.85
2019-02-08T08:36:16.538Z,14.40
2019-02-08T08:39:45.085Z,14.35
2019-02-08T08:43:03.420Z,14.28
2019-02-08T08:46:21.166Z,13.83
2019-02-08T08:49:40.896Z,14.87
2019-02-08T08:52:47.513Z,14.33
2019-02-08T08:56:06.913Z,13.78
2019-02-08T08:59:06.525Z,14.03
2019-02-08T09:02:28.748Z,13.32
2019-02-08T09:05:40.546Z,14.68
2019-02-08T09:09:00.008Z,13.90
2019-02-08T09:11:55.540Z,14.87
2019-02-08T09:14:57.664Z,14.65
2019-02-08T09:18:26.031Z,15.40
2019-02-08T09:21:44.817Z,13.83
2019-02-08T09:24:54.647Z,14.83
2019-02-08T09:28:04.375Z,15.00
2019-02-08T09:31:26.782Z,14.65
2019-02-08T09:34:33.428Z,15.18
2019-02-08T09:37:48.646Z,14.58
2019-02-08T09:41:16.237Z,15.15
2019-02-08T09:44:24.178Z,14.15
2019-02-08T09:47:49.901Z,14.33
2019-02-08T09:50:55.383Z,13.28
2019-02-08T09:54:07.379Z,13.95
2019-02-08T09:57:20.339Z,13.13
2019-02-08T10:00:32.162Z,12.80
2019-02-08T10:03:50.519Z,13.18
2019-02-08T10:06:52.465Z,12.20
2019-02-08T10:09:56.459Z,12.00
2019-02-08T10:12:58.693Z,13.62
2019-02-08T10:16:02.107Z,12.58
2019-02-08T10:19:13.520Z,13.28
2019-02-08T10:22:47.829Z,13.10
2019-02-08T10:26:13.109Z,12.30
2019-02-08T10:29:33.237Z,11.53
2019-02-08T10:32:36.909Z,11.53
2019-02-08T10:35:56.085Z,11.88
2019-02-08T10:39:07.189Z,12.82
2019-02-08T10:42:15.096Z,11.90
2019-02-08T10:45:45.960Z,11.10
2019-02-08T10:48:58.400Z,11.25
2019-02-08T10:52:13.159Z,11.68
2019-02-08T10:55:24.052Z,10.25
2019-02-08T10:58:32.453Z,11.50
2019-02-08T11:01:47.861Z,10.98
2019-02-08T11:05:16.201Z,10.58
2019-02-08T11:08:35.480Z,11.15
2019-02-08T11:12:00.462Z,10.98
2019-02-08T11:15:18.647Z,10.30
2019-02-08T11:18:34.243Z,10.95
2019-02-08T11:21:07.357Z,10.10
2019-02-08T11:23:39.678Z,10.23
2019-02-08T11:26:12.060Z,10.50
2019-02-08T11:28:44.388Z,10.43
2019-02-08T11:31:16.719Z,9.33
2019-02-08T11:33:49.016Z,10.72
2019-02-08T11:36:21.600Z,9.93
2019-02-08T11:38:53.993Z,9.38
2019-02-08T11:41:26.389Z,9.75
2019-02-08T11:43:58.705Z,9.10
2019-02-08T11:46:30.981Z,9.58
2019-02-08T11:49:03.260Z,9.80
2019-02-08T11:51:36.446Z,9.63
2019-02-08T11:54:19.464Z,9.68
2019-02-08T11:57:02.269Z,9.53
2019-02-08T11:59:34.693Z,9.93
2019-02-08T12:02:07.890Z,9.55
2019-02-08T12:04:40.486Z,9.73
2019-02-08T12:07:12.762Z,9.15
2019-02-08T12:09:46.082Z,9.40
2019-02-08T12:12:18.336Z,9.70
2019-02-08T12:14:50.613Z,8.98
2019-02-08T12:17:22.892Z,9.23
2019-02-08T12:19:55.175Z,9.20
2019-02-08T12:22:27.499Z,9.00
2019-02-08T12:25:00.215Z,8.73
2019-02-08T12:27:32.608Z,8.65
2019-02-08T12:30:08.161Z,9.23
2019-02-08T12:32:40.518Z,8.93
2019-02-08T12:35:12.782Z,8.78
2019-02-08T12:37:45.141Z,8.15
2019-02-08T12:40:17.410Z,8.00
2019-02-08T12:42:49.778Z,7.97
2019-02-08T12:45:22.254Z,7.28
2019-02-08T12:47:54.627Z,8.15
2019-02-08T12:50:27.210Z,8.48
2019-02-08T12:52:59.544Z,8.50
2019-02-08T12:55:32.022Z,8.28
2019-02-08T12:58:04.282Z,7.83
2019-02-08T13:00:36.786Z,8.00
2019-02-08T13:03:09.081Z,7.17
2019-02-08T13:05:41.698Z,6.97
2019-02-08T13:08:13.943Z,7.08
2019-02-08T13:10:46.191Z,7.40
2019-02-08T13:13:18.479Z,6.87
2019-02-08T13:15:50.782Z,6.90
2019-02-08T13:18:23.042Z,6.80
2019-02-08T13:20:55.269Z,7.20
2019-02-08T13:23:27.604Z,7.37
2019-02-08T13:25:59.832Z,8.13
2019-02-08T13:28:32.658Z,8.05
2019-02-08T13:31:04.989Z,7.87
2019-02-08T13:33:37.344Z,8.55
2019-02-08T13:36:15.140Z,9.00
2019-02-08T13:38:47.404Z,7.45
2019-02-08T13:41:19.741Z,7.62
2019-02-08T13:43:52.073Z,6.80
2019-02-08T13:46:24.366Z,6.55
2019-02-08T13:48:56.686Z,6.80
2019-02-08T13:51:29.114Z,7.05
2019-02-08T13:54:01.366Z,6.87
2019-02-08T13:56:33.750Z,6.72
2019-02-08T13:59:06.172Z,6.78
2019-02-08T14:01:38.509Z,6.30
2019-02-08T14:04:11.780Z,7.42
2019-02-08T14:06:44.195Z,7.33
2019-02-08T14:09:16.470Z,7.53
2019-02-08T14:11:48.748Z,7.22
2019-02-08T14:14:21.049Z,6.65
2019-02-08T14:16:53.353Z,7.67
2019-02-08T14:19:25.694Z,7.42
2019-02-08T14:21:57.990Z,7.67
2019-02-08T14:24:30.472Z,7.85
2019-02-08T14:27:08.431Z,7.80
2019-02-08T14:29:36.843Z,7.65
2019-02-08T14:32:09.220Z,7.78
2019-02-08T14:34:43.728Z,6.90
2019-02-08T14:37:16.053Z,7.30
2019-02-08T14:39:48.592Z,7.17
2019-02-08T14:42:21.058Z,7.08
2019-02-08T14:44:53.461Z,7.22
2019-02-08T14:47:26.048Z,6.40
2019-02-08T14:49:58.491Z,7.80
2019-02-08T14:52:30.854Z,8.08
2019-02-08T14:55:04.797Z,7.17
2019-02-08T14:57:37.548Z,9.20
2019-02-08T15:00:13.159Z,9.48
2019-02-08T15:02:45.763Z,9.18
2019-02-08T15:05:19.035Z,9.10
2019-02-08T15:07:51.711Z,9.33
2019-02-08T15:10:29.590Z,9.30
2019-02-08T15:13:02.968Z,9.18
2019-02-08T15:15:35.390Z,8.75
2019-02-08T15:18:08.346Z,8.70
2019-02-08T15:20:40.704Z,8.83
2019-02-08T15:23:13.080Z,9.10
2019-02-08T15:25:45.521Z,8.28
2019-02-08T15:28:17.803Z,8.50
2019-02-08T15:30:50.365Z,8.50
2019-02-08T15:33:22.740Z,8.58
2019-02-08T15:35:56.917Z,8.60
2019-02-08T15:38:30.083Z,8.88
2019-02-08T15:41:02.578Z,8.30
2019-02-08T15:43:35.033Z,8.03
2019-02-08T15:46:07.877Z,7.55
2019-02-08T15:48:40.297Z,8.75
2019-02-08T15:51:12.641Z,9.40
2019-02-08T15:53:44.894Z,9.75
2019-02-08T15:56:17.941Z,10.28
2019-02-08T15:58:50.590Z,10.90
2019-02-08T16:01:23.287Z,11.57
2019-02-08T16:03:55.781Z,10.93
2019-02-08T16:06:28.135Z,12.15
2019-02-08T16:09:00.554Z,13.18
2019-02-08T16:11:34.415Z,14.00
2019-02-08T16:14:07.009Z,14.13
2019-02-08T16:16:39.379Z,12.60
2019-02-08T16:19:11.789Z,12.75
2019-02-08T16:21:44.229Z,14.25
2019-02-08T16:24:16.606Z,14.60
2019-02-08T16:26:49.146Z,17.30
2019-02-08T16:29:21.488Z,16.60
2019-02-08T16:31:54.118Z,17.42
2019-02-08T16:34:28.026Z,17.05
2019-02-08T16:37:03.629Z,19.02
2019-02-08T16:39:36.187Z,18.45
2019-02-08T16:42:08.652Z,19.00
2019-02-08T16:44:41.089Z,17.73
2019-02-08T16:47:13.950Z,19.25
2019-02-08T16:49:46.706Z,18.75
2019-02-08T16:52:19.018Z,17.73
2019-02-08T16:54:51.475Z,17.95
2019-02-08T16:57:23.802Z,18.25
2019-02-08T16:59:58.251Z,18.50
2019-02-08T17:02:32.544Z,19.87
2019-02-08T17:05:05.620Z,20.82
2019-02-08T17:07:37.982Z,23.65
2019-02-08T17:10:12.651Z,25.27
2019-02-08T17:12:45.040Z,20.17
2019-02-08T17:15:19.837Z,22.93
2019-02-08T17:17:54.840Z,24.15
2019-02-08T17:20:33.568Z,29.37
2019-02-08T17:23:08.971Z,17.60
2019-02-08T17:25:41.238Z,17.70
2019-02-08T17:28:13.700Z,14.75
2019-02-08T17:30:46.289Z,15.65
2019-02-08T17:33:18.729Z,16.57
2019-02-08T17:35:51.080Z,16.62
2019-02-08T17:38:24.152Z,17.95
2019-02-08T17:40:56.729Z,19.15
2019-02-08T17:43:29.248Z,21.65
2019-02-08T17:46:02.517Z,22.73
2019-02-08T17:48:34.947Z,23.07
2019-02-08T17:51:07.467Z,21.97
2019-02-08T17:53:39.956Z,22.13
2019-02-08T17:56:12.345Z,22.42
2019-02-08T17:58:48.119Z,22.75
2019-02-08T18:01:20.742Z,20.52
2019-02-08T18:03:53.140Z,23.77
2019-02-08T18:06:25.531Z,25.23
2019-02-08T18:08:58.121Z,29.50
2019-02-08T18:11:30.701Z,33.60
2019-02-08T18:14:03.121Z,34.92
2019-02-08T18:16:35.890Z,32.17
2019-02-08T18:19:08.820Z,35.17
2019-02-08T18:21:41.274Z,33.98
2019-02-08T18:24:14.644Z,36.88
2019-02-08T18:26:55.316Z,31.55
2019-02-08T18:29:28.029Z,26.42
2019-02-08T18:32:00.817Z,24.45
2019-02-08T18:34:33.465Z,19.75
2019-02-08T18:37:06.133Z,18.17
2019-02-08T18:39:39.969Z,17.92
2019-02-08T18:42:12.474Z,18.52
2019-02-08T18:44:44.843Z,24.67
2019-02-08T18:47:17.187Z,35.83
2019-02-08T18:49:49.766Z,52.33
2019-02-08T18:52:22.110Z,49.15
2019-02-08T18:54:54.408Z,37.43
2019-02-08T18:57:26.931Z,33.50
2019-02-08T18:59:59.259Z,33.30
2019-02-08T19:02:31.837Z,27.22
2019-02-08T19:05:05.173Z,26.37
2019-02-08T19:07:37.488Z,24.65
2019-02-08T19:10:12.508Z,22.00
2019-02-08T19:12:45.329Z,20.30
2019-02-08T19:15:18.756Z,19.07
2019-02-08T19:17:52.302Z,18.42
2019-02-08T19:20:25.023Z,26.57
2019-02-08T19:22:57.461Z,30.27
2019-02-08T19:25:34.926Z,29.10
2019-02-08T19:28:08.411Z,23.32
2019-02-08T19:30:40.854Z,23.32
2019-02-08T19:33:13.229Z,18.53
2019-02-08T19:35:45.614Z,18.60
2019-02-08T19:38:17.952Z,23.77
2019-02-08T19:40:50.317Z,24.20
2019-02-08T19:43:22.684Z,19.83
2019-02-08T19:45:55.293Z,19.40
2019-02-08T19:48:27.553Z,18.95
2019-02-08T19:50:59.941Z,18.57
2019-02-08T19:53:32.332Z,19.42
2019-02-08T19:56:05.112Z,20.30
2019-02-08T19:58:37.651Z,22.60
2019-02-08T20:01:09.951Z,29.73
2019-02-08T20:03:42.345Z,32.90
2019-02-08T20:06:14.767Z,33.63
2019-02-08T20:08:47.659Z,29.25
2019-02-08T20:11:20.026Z,26.47
2019-02-08T20:13:52.289Z,24.23
2019-02-08T20:16:24.594Z,25.20
2019-02-08T20:18:57.042Z,25.33
2019-02-08T20:21:29.467Z,28.83
2019-02-08T20:24:01.769Z,35.08
2019-02-08T20:26:34.092Z,30.73
2019-02-08T20:29:06.403Z,23.33
2019-02-08T20:31:38.683Z,22.62
2019-02-08T20:34:26.595Z,24.15
2019-02-08T20:36:58.973Z,22.30
2019-02-08T20:39:31.371Z,21.02
2019-02-08T20:42:03.785Z,21.83
2019-02-08T20:44:36.206Z,24.57
2019-02-08T20:47:08.518Z,24.07
2019-02-08T20:49:42.330Z,25.73
2019-02-08T20:52:14.647Z,28.10
2019-02-08T20:54:47.120Z,24.53
2019-02-08T20:57:19.351Z,21.50
2019-02-08T20:59:51.749Z,19.60
2019-02-08T21:02:24.300Z,20.33
2019-02-08T21:04:56.642Z,20.77
2019-02-08T21:07:29.026Z,20.43
2019-02-08T21:10:01.991Z,20.50
2019-02-08T21:12:35.661Z,19.80
2019-02-08T21:15:08.207Z,18.75
2019-02-08T21:17:40.528Z,19.75
2019-02-08T21:20:13.319Z,19.35
2019-02-08T21:22:45.796Z,20.77
2019-02-08T21:25:21.640Z,17.90
2019-02-08T21:27:54.068Z,18.90
2019-02-08T21:30:26.558Z,19.00
2019-02-08T21:32:59.033Z,18.33
2019-02-08T21:35:31.370Z,18.40
2019-02-08T21:38:03.794Z,18.47
2019-02-08T21:40:36.518Z,17.65
2019-02-08T21:43:09.529Z,18.07
2019-02-08T21:48:49.763Z,17.27
2019-02-08T21:51:22.112Z,17.57
2019-02-08T21:53:54.451Z,17.00
2019-02-08T21:56:26.926Z,17.00
2019-02-08T21:59:05.947Z,17.53
2019-02-08T22:01:33.533Z,16.50
2019-02-08T22:04:06.036Z,16.93
2019-02-08T22:06:38.479Z,16.97
2019-02-08T22:09:10.898Z,16.00
2019-02-08T22:11:43.981Z,15.67
2019-02-08T22:14:16.363Z,16.27
2019-02-08T22:16:48.694Z,16.00
2019-02-08T22:19:21.018Z,15.80
2019-02-08T22:21:53.336Z,15.15
2019-02-08T22:24:25.605Z,15.87
2019-02-08T22:26:58.014Z,15.33
2019-02-08T22:29:32.901Z,15.10
2019-02-08T22:32:05.365Z,14.70
2019-02-08T22:34:37.743Z,15.10
2019-02-08T22:37:09.993Z,16.07
2019-02-08T22:39:42.370Z,14.37
2019-02-08T22:42:15.255Z,15.55
2019-02-08T22:44:49.092Z,15.20
2019-02-08T22:47:21.415Z,14.80
2019-02-08T22:49:53.766Z,14.97
2019-02-08T22:52:26.135Z,16.87
2019-02-08T22:54:58.479Z,14.97
2019-02-08T22:57:30.708Z,16.23
2019-02-08T23:00:03.021Z,15.48
2019-02-08T23:02:37.228Z,15.50
2019-02-08T23:05:09.622Z,15.50
2019-02-08T23:07:42.018Z,16.17
2019-02-08T23:10:14.407Z,15.40
2019-02-08T23:12:46.710Z,15.23
2019-02-08T23:15:19.081Z,16.25
2019-02-08T23:17:51.481Z,16.77
2019-02-08T23:20:23.857Z,15.83
2019-02-08T23:22:56.280Z,16.03
2019-02-08T23:25:28.755Z,15.27
2019-02-08T23:28:01.197Z,16.77
2019-02-08T23:30:33.636Z,15.80
2019-02-08T23:33:06.120Z,16.07
2019-02-08T23:35:43.047Z,15.08
2019-02-08T23:38:12.535Z,15.63
2019-02-08T23:40:44.904Z,14.68
2019-02-08T23:43:19.589Z,15.63
2019-02-08T23:45:51.919Z,15.50
2019-02-08T23:48:24.305Z,16.17
2019-02-08T23:50:56.673Z,14.80
2019-02-08T23:53:28.963Z,14.98
2019-02-08T23:56:01.368Z,16.20
2019-02-08T23:58:33.704Z,16.37
